Кавказ

Регион ЕС ОрВД Кавказ

Регион Единой Системы Организации Воздушного Движения (регион ЕС ОрВД) Кавказ является структурным подразделением VATRUS.

В зону ответственности центра в сети VATSIM входит воздушное пространство над территориями Ростовской, Волгоградской, Астраханской областями; республиками Калмыкия, Дагестан, Чечня, Ингушетия, Северная Осетия - Алания, Карачаево-Черкесская, Адыгея, Крым; Краснодарским и Ставропольским краями, а так же Грузией, Азербайджаном и Арменией.

Контакты для связи: 

Куратор региона – Бадалов Григорий (1115140) – acc_head@urrv.me

Инструкторский состав:

Полостяной Валерий (1111228) - ins02@urrv.me

Организация мероприятий:

event@urrv.me

Секторизация РЦ Региона Кавказ

Лого Кавказ
Руководство

Grigori Badalov

Куратор
Контакты

FSS региона
Обозначение
RU-SC_CTR
Позывной
Кавказ-Радар
Частота
136.000
Примечание
Top-down
Инструкторы региона
Daniel Ryabkov * (Controller)
Grigori Badalov (Instructor)
Oleg Kabachenko * (Senior Student)
Valeriy Polostyanoy (Instructor)
Включает в себя

РПИ Баку
РПИ Ереван
РПИ Ростов-на-Дону
РПИ Тбилиси*

Диспетчеры региона

Диспетчер Рейтинг Допуски *
Wesley Wong Controller UBBA_CTR
Alexei Gladilin Controller URRV_CTR
Anatoly Zhilkin Controller UBBA_CTR , UDDD_CTR , UGGG_CTR , URRV_CTR
Artem Smychkov Instructor URRV_CTR
Daniel Ryabkov Controller URRV_CTR
Denis Zhuchkov Instructor URRV_CTR
Grigori Badalov Instructor UBBA_CTR , UDDD_CTR , UGGG_CTR , URRV_CTR
Ivan Chernov Senior Controller UBBA_CTR , UDDD_CTR , UGGG_CTR , URRV_CTR
Kirill Ivanov Controller URRV_CTR , SIP_APP
Valeriy Polostyanoy Instructor UBBA_CTR , UDDD_CTR , UGGG_CTR , URRV_CTR
Alex Lupii Student 2 URSS_TWR, URSS_GND
Alexey Ginko Student 2 URSS_GND, URSS_TWR!!!*
Anton Fadeev Student URSS_GND
Dmitrii Khrupov Student 2 URSS_R_APP*, URMM_TWR, URWW_GND
Dmitry Sazonov Senior Student URSS_APP
Emanuel Teymoorian Senior Student URSS_APP*, URRP_APP 
Gregory Adamov Student 2 URSS_TWR
Ivan Pivovarov Student 2 URSS_R_APP*
Maksim Kholodilov Student URFF_TWR!!!*
Maxim Baglikov Student 2 URSS_TWR!!!, URSS_R_APP*
Nikolay Kutorkin Student URSS_TWR!!!*, URSS_GND
Oleg Kabachenko Senior Student URSS_APP
Radomir Sigov Student URSS_GND
Sergey Vologzhin Unknown URSS_GND

Аэропорты региона

ICAO Город Название Погода
UBBB Баку Баку UBBB 240730Z 16008KT CAVOK 27/02 Q1020 NOSIG
UDYZ Ереван Звартноц UDYZ 240730Z 17003KT 110V240 9999 NSC 21/00 Q1022 NOSIG
URFF Симферополь Симферополь
URSS Сочи Сочи URSS 240730Z 04001MPS 9999 NSC 22/07 Q1014 R02/010070 R06/////// NOSIG RMK R06/04001MPS QFE759
UGTB Тбилиси Тбилиси UGTB 240730Z 19003KT 120V250 CAVOK 20/09 Q1023 NOSIG
URRY
URKA Анапа Анапа URKA 240730Z 11004MPS 080V140 CAVOK 19/10 Q1013 R22/010070 NOSIG RMK QFE755/1007
URWA Астрахань Астрахань URWA 240730Z 32003MPS 290V010 CAVOK 23/07 Q1019 R27/010070 NOSIG RMK QFE766/1021
UGSB Батуми Батуми UGSB 240730Z 11013KT CAVOK 27/05 Q1015 NOSIG
URMO Владикавказ Беслан URMO 240730Z 11002MPS 9999 NSC 17/08 Q1019 R09/010070 NOSIG RMK QFE721/0961
URWW Волгоград Волгоград URWW 240730Z 13003MPS 100V160 CAVOK 17/05 Q1021 R05/010070 NOSIG
UBBQ Габала Габала UBBQ 240700Z 21003KT 9999 SCT200 21/11 Q1022 NOSIG
URKG Геленджик Геленджик
URMG Грозный Грозный URMG 240730Z 07004MPS 040V100 CAVOK 20/09 Q1019 R26/090070 NOSIG RMK QFE749/0999
UDSG Гюмри Ширак UDSG 240730Z VRB01KT 9999 FEW049 15/00 Q1024 NOSIG
UBBG Гянджа Гянджа UBBG 240730Z 32008KT 9999 BKN100 20/10 Q1022 NOSIG
UDYE Ереван Эребуни
URKK Краснодар Пашковский URKK 240730Z 02003MPS CAVOK 17/11 Q1015 R05R/CLRD70 NOSIG RMK QFE758
UGKO Кутаиси Кутаиси UGKO 240730Z 08019KT CAVOK 23/12 Q1016 NOSIG
URML Махачкала Уйташ URML 240730Z 02004MPS 9999 NSC 21/12 Q1019 R32/01//70 NOSIG RMK QFE764/1018
URMM Минеральные Воды Минеральные Воды URMM 240730Z 12006MPS 9999 NSC 18/07 Q1019 R11/090070 NOSIG RMK QFE736/0981
URMS Назрань Магас
URMN Нальчик Нальчик URMN 240730Z 00000MPS 9999 NSC 16/07 Q1018 R24/010070 NOSIG RMK QFE727
UBBN Нахичевань Нахичевань UBBN 240730Z 21006KT 9999 FEW046 SCT100 21/08 Q1020 NOSIG RMK QFE690
URRP Ростов-на-Дону Платов URRP 240730Z 11006MPS 9999 FEW/// 13/07 Q1019 R05/CLRD70 NOSIG RMK QFE759/1012
URRR Ростов-на-Дону Ростов-на-Дону
URMT Ставрополь Ставрополь URMT 240730Z 14005MPS CAVOK 15/08 Q1019 R07/010070 NOSIG RMK QFE724
URWI Элиста Элиста URWI 240730Z 04002MPS 340V100 CAVOK 20/07 Q1019 R27/010065 NOSIG
UGAM Амбролаури Амбролаури UGAM 240730Z 28005KT CAVOK 14/07 Q1021
UBBL Ленкорань Ленкорань UBBL 240700Z 14011KT 9999 NSC 25/08 Q1021 NOSIG
UGMS Местия Местия UGMS 240730Z AUTO 23003KT 200V270 //// ////// 13/M00 Q1025
UGSA Натахтари Натахтари
UGGT Телави Телави